F/V L'atout II — FGG5090 — position and weather

sailwx.info

Track history (hours):
 
Tides and Currents Weather Stations Pressure Air Temp Water Temp Dewpoint Dewpoint Depression Visibility Wind Speed Wind Dir Waves Ship Positions

F/V L'atout II

Last reported at 2018-May-25 10:30 UTC. Time now 2018-May-25 10:46 UTC.
Position N 47°31' W 003°18'.

Length 10 m.

Type: Fishing. MMSI: 227021840.

Date/timePositionNaut miles runAvg speedWind from/ knotsBaromVisibWave heightAir tempDewpointWater temp
2018-May-25 10:30N 47°31' W 003°18'1 1.0
2018-May-25 10:00N 47°30' W 003°17'0 0.7
2018-May-25 09:30N 47°30' W 003°18'1 1.6
2018-May-25 08:58N 47°29' W 003°18'1 1.7
2018-May-25 08:30N 47°29' W 003°19'2 4.0
2018-May-25 08:00N 47°29' W 003°21'1 2.1
2018-May-25 07:30N 47°29' W 003°20'1 1.3
2018-May-25 07:00N 47°28' W 003°20'1 1.7
2018-May-25 06:30N 47°29' W 003°20'0 0.7
2018-May-25 06:00N 47°29' W 003°19'0 0.8
2018-May-25 05:30N 47°29' W 003°20'2 3.9
2018-May-25 05:00N 47°31' W 003°21'1 1.0
2018-May-25 04:30N 47°31' W 003°21'1 1.1
2018-May-25 03:59N 47°30' W 003°22'1 2.5
2018-May-25 03:30N 47°29' W 003°21'2 3.7
2018-May-25 03:00N 47°29' W 003°18'3 5.8
2018-May-25 02:30N 47°32' W 003°18'4 8.0
2018-May-25 02:00N 47°36' W 003°20'4 7.9
2018-May-25 01:30N 47°40' W 003°22'4 7.5
2018-May-25 01:00N 47°44' W 003°22'0 0.0
2018-May-24 13:16N 47°44' W 003°22'13 3.0
2018-May-24 09:00N 47°31' W 003°17'1 1.3
2018-May-24 08:30N 47°31' W 003°18'1 1.4
2018-May-24 08:00N 47°30' W 003°18'2 4.1
2018-May-24 07:30N 47°30' W 003°21'0 0.3
2018-May-24 07:00N 47°31' W 003°21'1 2.4
2018-May-24 06:30N 47°30' W 003°19'1 1.6
2018-May-24 06:00N 47°30' W 003°21'1 2.3
2018-May-24 05:30N 47°31' W 003°22'1 1.2
2018-May-24 05:00N 47°31' W 003°22'1 1.1
2018-May-24 04:30N 47°30' W 003°22'0 0.6
2018-May-24 04:00N 47°30' W 003°22'1 1.6
2018-May-24 03:30N 47°31' W 003°21'3 5.3
2018-May-24 03:00N 47°31' W 003°17'2 4.8
2018-May-24 02:30N 47°33' W 003°19'4 8.0
2018-May-24 02:00N 47°37' W 003°21'4 8.0
2018-May-24 01:30N 47°41' W 003°22'3 0.2
2018-May-23 12:34N 47°44' W 003°22'0 0.5
2018-May-23 12:28N 47°44' W 003°22'1 2.4
2018-May-23 12:00N 47°43' W 003°22'4 7.8
2018-May-23 11:29N 47°39' W 003°21'4 8.0
2018-May-23 11:00N 47°35' W 003°20'4 7.4
2018-May-23 10:30N 47°32' W 003°17'1 1.1
2018-May-23 10:00N 47°31' W 003°18'0 0.5
2018-May-23 09:30N 47°31' W 003°18'1 1.5
2018-May-23 09:00N 47°31' W 003°19'2 4.4
2018-May-23 08:30N 47°31' W 003°22'1 1.6
2018-May-23 08:00N 47°30' W 003°21'1 2.1
2018-May-23 07:30N 47°30' W 003°20'0 0.9
2018-May-23 06:57N 47°30' W 003°21'1 1.5
2018-May-23 06:30N 47°29' W 003°21'2 3.2
2018-May-23 06:00N 47°30' W 003°22'0 0.8
2018-May-23 05:31N 47°31' W 003°22'0 0.7
2018-May-23 04:58N 47°31' W 003°22'0 1.0
2018-May-23 04:30N 47°31' W 003°22'1 1.0
2018-May-23 03:59N 47°31' W 003°23'1 3.1
2018-May-23 03:30N 47°30' W 003°21'2 3.8
2018-May-23 03:00N 47°31' W 003°19'2 3.6
2018-May-23 02:30N 47°33' W 003°19'4 7.7
2018-May-23 01:58N 47°37' W 003°21'4 7.9
2018-May-23 01:30N 47°40' W 003°22'4 7.1
2018-May-23 01:00N 47°44' W 003°22'0 0.0
2018-May-22 12:31N 47°44' W 003°22'0 0.5
2018-May-22 12:30N 47°44' W 003°22'0 0.3
2018-May-22 11:58N 47°44' W 003°22'3 5.6
2018-May-22 11:30N 47°41' W 003°22'4 7.9
2018-May-22 11:00N 47°37' W 003°22'4 8.0
2018-May-22 10:30N 47°33' W 003°21'3 5.8
2018-May-22 09:59N 47°31' W 003°19'1 1.3
2018-May-22 09:30N 47°31' W 003°18'0 0.3
2018-May-22 09:00N 47°31' W 003°19'1 1.3
2018-May-22 08:30N 47°31' W 003°19'0 0.9
2018-May-22 08:00N 47°31' W 003°20'1 2.0
2018-May-22 07:30N 47°30' W 003°19'1 1.4
2018-May-22 07:00N 47°30' W 003°20'1 1.5
2018-May-22 06:30N 47°30' W 003°21'1 2.9
2018-May-22 06:00N 47°31' W 003°23'0 0.8
2018-May-22 05:30N 47°31' W 003°22'0 0.5
2018-May-22 05:01N 47°30' W 003°22'0 0.8
2018-May-22 04:30N 47°31' W 003°22'0 0.7
2018-May-22 03:59N 47°30' W 003°22'1 1.7
2018-May-22 03:30N 47°30' W 003°21'2 3.9
2018-May-22 03:00N 47°31' W 003°19'2 3.7
2018-May-22 02:30N 47°32' W 003°20'4 7.9
2018-May-22 02:00N 47°36' W 003°21'4 7.6
2018-May-22 01:30N 47°40' W 003°22'4 7.1
2018-May-22 00:58N 47°44' W 003°22'0 0.0
2018-May-21 11:54N 47°44' W 003°22'0 0.9
2018-May-21 11:30N 47°43' W 003°22'4 7.4
2018-May-21 11:00N 47°40' W 003°22'4 8.0
2018-May-21 10:30N 47°36' W 003°21'4 6.8
2018-May-21 09:57N 47°32' W 003°19'1 1.7
2018-May-21 09:30N 47°32' W 003°18'1 1.5
2018-May-21 09:00N 47°31' W 003°19'1 2.8
2018-May-21 08:30N 47°31' W 003°21'1 1.9
2018-May-21 08:00N 47°31' W 003°22'0 0.8
2018-May-21 07:30N 47°31' W 003°22'1 1.5
2018-May-21 07:00N 47°30' W 003°21'1 1.4
2018-May-21 06:30N 47°31' W 003°21'1 1.4
2018-May-21 06:00N 47°30' W 003°21'2 3.1
2018-May-21 05:30N 47°31' W 003°23'0 0.7
2018-May-21 05:00N 47°31' W 003°23'1 2.0
2018-May-21 04:30N 47°32' W 003°22'1 1.8
2018-May-21 04:00N 47°32' W 003°21'2 3.3
2018-May-21 03:30N 47°31' W 003°18'2 4.6
2018-May-21 03:00N 47°31' W 003°22'2 3.5
2018-May-21 02:30N 47°32' W 003°22'4 7.5
2018-May-21 02:00N 47°36' W 003°23'4 7.6
2018-May-21 01:30N 47°40' W 003°22'4 7.9
2018-May-21 01:00N 47°44' W 003°22'0 0.0
2018-May-20 10:40N 47°44' W 003°22'1 5.1
2018-May-20 10:30N 47°43' W 003°22'3 6.2
2018-May-20 10:00N 47°41' W 003°26'2 3.2
2018-May-20 09:30N 47°42' W 003°28'0 0.0
2018-May-20 08:54N 47°42' W 003°28'3 6.5
2018-May-20 08:29N 47°41' W 003°24'3 5.4
2018-May-20 07:58N 47°44' W 003°22'0 0.0
2018-May-19 12:11N 47°44' W 003°22'0 0.2
2018-May-19 12:00N 47°44' W 003°22'1 1.6
2018-May-19 11:30N 47°43' W 003°22'4 7.5
2018-May-19 11:00N 47°39' W 003°22'4 8.2
2018-May-19 10:30N 47°35' W 003°21'3 5.5
2018-May-19 10:00N 47°33' W 003°19'1 1.2
2018-May-19 09:30N 47°32' W 003°19'0 0.6
2018-May-19 08:58N 47°32' W 003°20'1 1.8
2018-May-19 08:30N 47°33' W 003°20'1 1.4
2018-May-19 08:01N 47°32' W 003°20'2 4.1
2018-May-19 07:31N 47°34' W 003°22'1 1.4
2018-May-19 06:59N 47°33' W 003°21'1 1.2
2018-May-19 06:29N 47°33' W 003°21'2 4.1
2018-May-19 06:00N 47°31' W 003°22'0 1.0
2018-May-19 05:31N 47°30' W 003°22'2 3.6
2018-May-19 05:01N 47°32' W 003°21'0 0.3
2018-May-19 04:30N 47°32' W 003°21'0 0.8
2018-May-19 03:59N 47°32' W 003°21'0 1.1
2018-May-19 03:31N 47°32' W 003°20'0 0.5
2018-May-19 02:55N 47°32' W 003°20'4 4.3
2018-May-19 02:05N 47°36' W 003°22'1 7.1
2018-May-19 02:00N 47°36' W 003°22'4 7.6
2018-May-19 01:30N 47°40' W 003°23'4 6.1
2018-May-19 00:55N 47°44' W 003°22'0 0.0
2018-May-18 12:37N 47°44' W 003°22'0 0.3
2018-May-18 12:30N 47°44' W 003°22'1 2.7
2018-May-18 12:01N 47°42' W 003°22'4 8.0
2018-May-18 11:31N 47°38' W 003°22'4 8.2
2018-May-18 11:01N 47°34' W 003°21'4 8.2
2018-May-18 10:31N 47°31' W 003°19'1 1.4
2018-May-18 09:59N 47°30' W 003°18'1 1.3
2018-May-18 09:28N 47°31' W 003°19'1 1.2
2018-May-18 09:00N 47°31' W 003°18'2 4.1
2018-May-18 08:30N 47°32' W 003°19'1 1.3
2018-May-18 08:00N 47°32' W 003°19'1 2.2
2018-May-18 07:30N 47°31' W 003°20'1 1.1
2018-May-18 07:00N 47°31' W 003°20'1 1.5
2018-May-18 06:30N 47°30' W 003°21'2 3.3
2018-May-18 06:00N 47°32' W 003°22'0 0.7
2018-May-18 05:30N 47°32' W 003°22'1 1.3
2018-May-18 04:58N 47°32' W 003°21'1 1.0
2018-May-18 04:28N 47°32' W 003°22'1 2.3
2018-May-18 03:59N 47°32' W 003°20'1 2.4
2018-May-18 03:30N 47°31' W 003°19'1 2.5
2018-May-18 03:00N 47°30' W 003°20'3 5.2
2018-May-18 02:30N 47°33' W 003°21'4 7.5
2018-May-18 01:59N 47°36' W 003°22'4 7.8
2018-May-18 01:30N 47°40' W 003°22'4 7.0
2018-May-18 01:00N 47°44' W 003°22'0 0.0
2018-May-17 12:25N 47°44' W 003°22'0 0.8
2018-May-17 12:00N 47°43' W 003°22'4 8.0
2018-May-17 11:30N 47°39' W 003°22'4 8.2
2018-May-17 11:00N 47°35' W 003°22'4 7.8
2018-May-17 10:30N 47°31' W 003°22'0 0.5
2018-May-17 10:00N 47°32' W 003°22'0 0.7
2018-May-17 09:30N 47°31' W 003°22'1 2.5
2018-May-17 09:00N 47°32' W 003°21'1 1.1
2018-May-17 08:29N 47°33' W 003°22'1 1.3
2018-May-17 08:00N 47°32' W 003°21'1 1.3
2018-May-17 07:29N 47°32' W 003°22'1 1.2
2018-May-17 07:00N 47°32' W 003°21'1 2.4
2018-May-17 06:30N 47°31' W 003°23'2 4.2
2018-May-17 06:00N 47°32' W 003°20'1 1.3
2018-May-17 05:30N 47°32' W 003°21'1 1.2
2018-May-17 04:58N 47°32' W 003°22'0 0.9
2018-May-17 04:28N 47°32' W 003°22'2 3.6
2018-May-17 04:00N 47°32' W 003°25'1 1.1
2018-May-17 03:30N 47°32' W 003°24'2 3.5
2018-May-17 03:00N 47°32' W 003°21'2 3.4
2018-May-17 02:30N 47°33' W 003°22'4 7.2
2018-May-17 02:00N 47°37' W 003°22'4 7.4
2018-May-17 01:30N 47°41' W 003°22'3 5.7
2018-May-17 00:58N 47°44' W 003°22'0 0.0
2018-May-16 12:15N 47°44' W 003°22'0 0.2
2018-May-16 11:59N 47°44' W 003°22'2 4.5
2018-May-16 11:30N 47°42' W 003°22'4 8.1
2018-May-16 11:00N 47°38' W 003°23'4 8.1
2018-May-16 10:30N 47°34' W 003°23'2 4.4
2018-May-16 10:00N 47°31' W 003°22'0 0.4
2018-May-16 09:30N 47°32' W 003°22'1 1.2
2018-May-16 08:58N 47°32' W 003°22'0 1.0
2018-May-16 08:30N 47°32' W 003°22'1 1.0
2018-May-16 08:00N 47°32' W 003°21'0 0.4
2018-May-16 07:29N 47°32' W 003°21'1 1.9
2018-May-16 06:59N 47°32' W 003°22'1 1.8
2018-May-16 06:30N 47°32' W 003°23'2 3.7
2018-May-16 06:00N 47°31' W 003°26'1 1.7
2018-May-16 05:30N 47°32' W 003°26'0 0.5
2018-May-16 05:00N 47°32' W 003°26'2 4.9
2018-May-16 04:30N 47°32' W 003°22'0 0.5
2018-May-16 03:59N 47°32' W 003°22'0 0.8
2018-May-16 03:30N 47°32' W 003°22'0 0.7
2018-May-16 03:00N 47°32' W 003°22'2 3.8
2018-May-16 02:30N 47°33' W 003°20'4 7.6
2018-May-16 02:00N 47°36' W 003°22'4 7.9
2018-May-16 01:28N 47°41' W 003°23'3 6.6
2018-May-16 01:00N 47°44' W 003°22'0 0.0
2018-May-15 13:37N 47°44' W 003°22'0 0.2
2018-May-15 13:28N 47°44' W 003°22'0 0.0
2018-May-15 12:58N 47°44' W 003°22'3 6.9
2018-May-15 12:30N 47°41' W 003°22'4 8.0
2018-May-15 12:00N 47°37' W 003°22'4 8.1
2018-May-15 11:30N 47°32' W 003°22'2 3.3
2018-May-15 10:59N 47°31' W 003°22'1 1.4
2018-May-15 10:30N 47°31' W 003°22'  
Track history (hours):
 
Tides and Currents Weather Stations Pressure Air Temp Water Temp Dewpoint Dewpoint Depression Visibility Wind Speed Wind Dir Waves Ship Positions

F/V L'atout II

Last reported at 2018-May-25 10:30 UTC. Time now 2018-May-25 10:46 UTC.
Position N 47°31' W 003°18'.

Length 10 m.

Type: Fishing. MMSI: 227021840.

Date/timePositionNaut miles runAvg speedWind from/ knotsBaromVisibWave heightAir tempDewpointWater temp
2018-May-25 10:30N 47°31' W 003°18'1 1.0
2018-May-25 10:00N 47°30' W 003°17'0 0.7
2018-May-25 09:30N 47°30' W 003°18'1 1.6
2018-May-25 08:58N 47°29' W 003°18'1 1.7
2018-May-25 08:30N 47°29' W 003°19'2 4.0
2018-May-25 08:00N 47°29' W 003°21'1 2.1
2018-May-25 07:30N 47°29' W 003°20'1 1.3
2018-May-25 07:00N 47°28' W 003°20'1 1.7
2018-May-25 06:30N 47°29' W 003°20'0 0.7
2018-May-25 06:00N 47°29' W 003°19'0 0.8
2018-May-25 05:30N 47°29' W 003°20'2 3.9
2018-May-25 05:00N 47°31' W 003°21'1 1.0
2018-May-25 04:30N 47°31' W 003°21'1 1.1
2018-May-25 03:59N 47°30' W 003°22'1 2.5
2018-May-25 03:30N 47°29' W 003°21'2 3.7
2018-May-25 03:00N 47°29' W 003°18'3 5.8
2018-May-25 02:30N 47°32' W 003°18'4 8.0
2018-May-25 02:00N 47°36' W 003°20'4 7.9
2018-May-25 01:30N 47°40' W 003°22'4 7.5
2018-May-25 01:00N 47°44' W 003°22'0 0.0
2018-May-24 13:16N 47°44' W 003°22'13 3.0
2018-May-24 09:00N 47°31' W 003°17'1 1.3
2018-May-24 08:30N 47°31' W 003°18'1 1.4
2018-May-24 08:00N 47°30' W 003°18'2 4.1
2018-May-24 07:30N 47°30' W 003°21'0 0.3
2018-May-24 07:00N 47°31' W 003°21'1 2.4
2018-May-24 06:30N 47°30' W 003°19'1 1.6
2018-May-24 06:00N 47°30' W 003°21'1 2.3
2018-May-24 05:30N 47°31' W 003°22'1 1.2
2018-May-24 05:00N 47°31' W 003°22'1 1.1
2018-May-24 04:30N 47°30' W 003°22'0 0.6
2018-May-24 04:00N 47°30' W 003°22'1 1.6
2018-May-24 03:30N 47°31' W 003°21'3 5.3
2018-May-24 03:00N 47°31' W 003°17'2 4.8
2018-May-24 02:30N 47°33' W 003°19'4 8.0
2018-May-24 02:00N 47°37' W 003°21'4 8.0
2018-May-24 01:30N 47°41' W 003°22'3 0.2
2018-May-23 12:34N 47°44' W 003°22'0 0.5
2018-May-23 12:28N 47°44' W 003°22'1 2.4
2018-May-23 12:00N 47°43' W 003°22'4 7.8
2018-May-23 11:29N 47°39' W 003°21'4 8.0
2018-May-23 11:00N 47°35' W 003°20'4 7.4
2018-May-23 10:30N 47°32' W 003°17'1 1.1
2018-May-23 10:00N 47°31' W 003°18'0 0.5
2018-May-23 09:30N 47°31' W 003°18'1 1.5
2018-May-23 09:00N 47°31' W 003°19'2 4.4
2018-May-23 08:30N 47°31' W 003°22'1 1.6
2018-May-23 08:00N 47°30' W 003°21'1 2.1
2018-May-23 07:30N 47°30' W 003°20'0 0.9
2018-May-23 06:57N 47°30' W 003°21'1 1.5
2018-May-23 06:30N 47°29' W 003°21'2 3.2
2018-May-23 06:00N 47°30' W 003°22'0 0.8
2018-May-23 05:31N 47°31' W 003°22'0 0.7
2018-May-23 04:58N 47°31' W 003°22'0 1.0
2018-May-23 04:30N 47°31' W 003°22'1 1.0
2018-May-23 03:59N 47°31' W 003°23'1 3.1
2018-May-23 03:30N 47°30' W 003°21'2 3.8
2018-May-23 03:00N 47°31' W 003°19'2 3.6
2018-May-23 02:30N 47°33' W 003°19'4 7.7
2018-May-23 01:58N 47°37' W 003°21'4 7.9
2018-May-23 01:30N 47°40' W 003°22'4 7.1
2018-May-23 01:00N 47°44' W 003°22'0 0.0
2018-May-22 12:31N 47°44' W 003°22'0 0.5
2018-May-22 12:30N 47°44' W 003°22'0 0.3
2018-May-22 11:58N 47°44' W 003°22'3 5.6
2018-May-22 11:30N 47°41' W 003°22'4 7.9
2018-May-22 11:00N 47°37' W 003°22'4 8.0
2018-May-22 10:30N 47°33' W 003°21'3 5.8
2018-May-22 09:59N 47°31' W 003°19'1 1.3
2018-May-22 09:30N 47°31' W 003°18'0 0.3
2018-May-22 09:00N 47°31' W 003°19'1 1.3
2018-May-22 08:30N 47°31' W 003°19'0 0.9
2018-May-22 08:00N 47°31' W 003°20'1 2.0
2018-May-22 07:30N 47°30' W 003°19'1 1.4
2018-May-22 07:00N 47°30' W 003°20'1 1.5
2018-May-22 06:30N 47°30' W 003°21'1 2.9
2018-May-22 06:00N 47°31' W 003°23'0 0.8
2018-May-22 05:30N 47°31' W 003°22'0 0.5
2018-May-22 05:01N 47°30' W 003°22'0 0.8
2018-May-22 04:30N 47°31' W 003°22'0 0.7
2018-May-22 03:59N 47°30' W 003°22'1 1.7
2018-May-22 03:30N 47°30' W 003°21'2 3.9
2018-May-22 03:00N 47°31' W 003°19'2 3.7
2018-May-22 02:30N 47°32' W 003°20'4 7.9
2018-May-22 02:00N 47°36' W 003°21'4 7.6
2018-May-22 01:30N 47°40' W 003°22'4 7.1
2018-May-22 00:58N 47°44' W 003°22'0 0.0
2018-May-21 11:54N 47°44' W 003°22'0 0.9
2018-May-21 11:30N 47°43' W 003°22'4 7.4
2018-May-21 11:00N 47°40' W 003°22'4 8.0
2018-May-21 10:30N 47°36' W 003°21'4 6.8
2018-May-21 09:57N 47°32' W 003°19'1 1.7
2018-May-21 09:30N 47°32' W 003°18'1 1.5
2018-May-21 09:00N 47°31' W 003°19'1 2.8
2018-May-21 08:30N 47°31' W 003°21'1 1.9
2018-May-21 08:00N 47°31' W 003°22'0 0.8
2018-May-21 07:30N 47°31' W 003°22'1 1.5
2018-May-21 07:00N 47°30' W 003°21'1 1.4
2018-May-21 06:30N 47°31' W 003°21'1 1.4
2018-May-21 06:00N 47°30' W 003°21'2 3.1
2018-May-21 05:30N 47°31' W 003°23'0 0.7
2018-May-21 05:00N 47°31' W 003°23'1 2.0
2018-May-21 04:30N 47°32' W 003°22'1 1.8
2018-May-21 04:00N 47°32' W 003°21'2 3.3
2018-May-21 03:30N 47°31' W 003°18'2 4.6
2018-May-21 03:00N 47°31' W 003°22'2 3.5
2018-May-21 02:30N 47°32' W 003°22'4 7.5
2018-May-21 02:00N 47°36' W 003°23'4 7.6
2018-May-21 01:30N 47°40' W 003°22'4 7.9
2018-May-21 01:00N 47°44' W 003°22'0 0.0
2018-May-20 10:40N 47°44' W 003°22'1 5.1
2018-May-20 10:30N 47°43' W 003°22'3 6.2
2018-May-20 10:00N 47°41' W 003°26'2 3.2
2018-May-20 09:30N 47°42' W 003°28'0 0.0
2018-May-20 08:54N 47°42' W 003°28'3 6.5
2018-May-20 08:29N 47°41' W 003°24'3 5.4
2018-May-20 07:58N 47°44' W 003°22'0 0.0
2018-May-19 12:11N 47°44' W 003°22'0 0.2
2018-May-19 12:00N 47°44' W 003°22'1 1.6
2018-May-19 11:30N 47°43' W 003°22'4 7.5
2018-May-19 11:00N 47°39' W 003°22'4 8.2
2018-May-19 10:30N 47°35' W 003°21'3 5.5
2018-May-19 10:00N 47°33' W 003°19'1 1.2
2018-May-19 09:30N 47°32' W 003°19'0 0.6
2018-May-19 08:58N 47°32' W 003°20'1 1.8
2018-May-19 08:30N 47°33' W 003°20'1 1.4
2018-May-19 08:01N 47°32' W 003°20'2 4.1
2018-May-19 07:31N 47°34' W 003°22'1 1.4
2018-May-19 06:59N 47°33' W 003°21'1 1.2
2018-May-19 06:29N 47°33' W 003°21'2 4.1
2018-May-19 06:00N 47°31' W 003°22'0 1.0
2018-May-19 05:31N 47°30' W 003°22'2 3.6
2018-May-19 05:01N 47°32' W 003°21'0 0.3
2018-May-19 04:30N 47°32' W 003°21'0 0.8
2018-May-19 03:59N 47°32' W 003°21'0 1.1
2018-May-19 03:31N 47°32' W 003°20'0 0.5
2018-May-19 02:55N 47°32' W 003°20'4 4.3
2018-May-19 02:05N 47°36' W 003°22'1 7.1
2018-May-19 02:00N 47°36' W 003°22'4 7.6
2018-May-19 01:30N 47°40' W 003°23'4 6.1
2018-May-19 00:55N 47°44' W 003°22'0 0.0
2018-May-18 12:37N 47°44' W 003°22'0 0.3
2018-May-18 12:30N 47°44' W 003°22'1 2.7
2018-May-18 12:01N 47°42' W 003°22'4 8.0
2018-May-18 11:31N 47°38' W 003°22'4 8.2
2018-May-18 11:01N 47°34' W 003°21'4 8.2
2018-May-18 10:31N 47°31' W 003°19'1 1.4
2018-May-18 09:59N 47°30' W 003°18'1 1.3
2018-May-18 09:28N 47°31' W 003°19'1 1.2
2018-May-18 09:00N 47°31' W 003°18'2 4.1
2018-May-18 08:30N 47°32' W 003°19'1 1.3
2018-May-18 08:00N 47°32' W 003°19'1 2.2
2018-May-18 07:30N 47°31' W 003°20'1 1.1
2018-May-18 07:00N 47°31' W 003°20'1 1.5
2018-May-18 06:30N 47°30' W 003°21'2 3.3
2018-May-18 06:00N 47°32' W 003°22'0 0.7
2018-May-18 05:30N 47°32' W 003°22'1 1.3
2018-May-18 04:58N 47°32' W 003°21'1 1.0
2018-May-18 04:28N 47°32' W 003°22'1 2.3
2018-May-18 03:59N 47°32' W 003°20'1 2.4
2018-May-18 03:30N 47°31' W 003°19'1 2.5
2018-May-18 03:00N 47°30' W 003°20'3 5.2
2018-May-18 02:30N 47°33' W 003°21'4 7.5
2018-May-18 01:59N 47°36' W 003°22'4 7.8
2018-May-18 01:30N 47°40' W 003°22'4 7.0
2018-May-18 01:00N 47°44' W 003°22'0 0.0
2018-May-17 12:25N 47°44' W 003°22'0 0.8
2018-May-17 12:00N 47°43' W 003°22'4 8.0
2018-May-17 11:30N 47°39' W 003°22'4 8.2
2018-May-17 11:00N 47°35' W 003°22'4 7.8
2018-May-17 10:30N 47°31' W 003°22'0 0.5
2018-May-17 10:00N 47°32' W 003°22'0 0.7
2018-May-17 09:30N 47°31' W 003°22'1 2.5
2018-May-17 09:00N 47°32' W 003°21'1 1.1
2018-May-17 08:29N 47°33' W 003°22'1 1.3
2018-May-17 08:00N 47°32' W 003°21'1 1.3
2018-May-17 07:29N 47°32' W 003°22'1 1.2
2018-May-17 07:00N 47°32' W 003°21'1 2.4
2018-May-17 06:30N 47°31' W 003°23'2 4.2
2018-May-17 06:00N 47°32' W 003°20'1 1.3
2018-May-17 05:30N 47°32' W 003°21'1 1.2
2018-May-17 04:58N 47°32' W 003°22'0 0.9
2018-May-17 04:28N 47°32' W 003°22'2 3.6
2018-May-17 04:00N 47°32' W 003°25'1 1.1
2018-May-17 03:30N 47°32' W 003°24'2 3.5
2018-May-17 03:00N 47°32' W 003°21'2 3.4
2018-May-17 02:30N 47°33' W 003°22'4 7.2
2018-May-17 02:00N 47°37' W 003°22'4 7.4
2018-May-17 01:30N 47°41' W 003°22'3 5.7
2018-May-17 00:58N 47°44' W 003°22'0 0.0
2018-May-16 12:15N 47°44' W 003°22'0 0.2
2018-May-16 11:59N 47°44' W 003°22'2 4.5
2018-May-16 11:30N 47°42' W 003°22'4 8.1
2018-May-16 11:00N 47°38' W 003°23'4 8.1
2018-May-16 10:30N 47°34' W 003°23'2 4.4
2018-May-16 10:00N 47°31' W 003°22'0 0.4
2018-May-16 09:30N 47°32' W 003°22'1 1.2
2018-May-16 08:58N 47°32' W 003°22'0 1.0
2018-May-16 08:30N 47°32' W 003°22'1 1.0
2018-May-16 08:00N 47°32' W 003°21'0 0.4
2018-May-16 07:29N 47°32' W 003°21'1 1.9
2018-May-16 06:59N 47°32' W 003°22'1 1.8
2018-May-16 06:30N 47°32' W 003°23'2 3.7
2018-May-16 06:00N 47°31' W 003°26'1 1.7
2018-May-16 05:30N 47°32' W 003°26'0 0.5
2018-May-16 05:00N 47°32' W 003°26'2 4.9
2018-May-16 04:30N 47°32' W 003°22'0 0.5
2018-May-16 03:59N 47°32' W 003°22'0 0.8
2018-May-16 03:30N 47°32' W 003°22'0 0.7
2018-May-16 03:00N 47°32' W 003°22'2 3.8
2018-May-16 02:30N 47°33' W 003°20'4 7.6
2018-May-16 02:00N 47°36' W 003°22'4 7.9
2018-May-16 01:28N 47°41' W 003°23'3 6.6
2018-May-16 01:00N 47°44' W 003°22'0 0.0
2018-May-15 13:37N 47°44' W 003°22'0 0.2
2018-May-15 13:28N 47°44' W 003°22'0 0.0
2018-May-15 12:58N 47°44' W 003°22'3 6.9
2018-May-15 12:30N 47°41' W 003°22'4 8.0
2018-May-15 12:00N 47°37' W 003°22'4 8.1
2018-May-15 11:30N 47°32' W 003°22'2 3.3
2018-May-15 10:59N 47°31' W 003°22'1 1.4
2018-May-15 10:30N 47°31' W 003°22'  

Dump ship's entire track history